sensor_id;sensor_type;location;lat;lon;timestamp;P1;durP1;ratioP1;P2;durP2;ratioP2
80557;SDS011;69901;43.524;-5.636;2023-06-10T00:00:48;10.87;;;2.60;;
80557;SDS011;69901;43.524;-5.636;2023-06-10T00:03:13;6.97;;;2.40;;
80557;SDS011;69901;43.524;-5.636;2023-06-10T00:05:39;6.70;;;2.60;;
80557;SDS011;69901;43.524;-5.636;2023-06-10T00:08:05;6.03;;;2.10;;
80557;SDS011;69901;43.524;-5.636;2023-06-10T00:10:36;8.73;;;2.63;;
80557;SDS011;69901;43.524;-5.636;2023-06-10T00:13:02;6.85;;;2.65;;
80557;SDS011;69901;43.524;-5.636;2023-06-10T00:15:28;6.10;;;2.00;;
80557;SDS011;69901;43.524;-5.636;2023-06-10T00:17:54;5.93;;;1.98;;
80557;SDS011;69901;43.524;-5.636;2023-06-10T00:20:20;6.87;;;2.00;;
80557;SDS011;69901;43.524;-5.636;2023-06-10T00:22:48;6.38;;;2.05;;
80557;SDS011;69901;43.524;-5.636;2023-06-10T00:25:14;6.93;;;2.15;;
80557;SDS011;69901;43.524;-5.636;2023-06-10T00:27:39;6.27;;;1.90;;
80557;SDS011;69901;43.524;-5.636;2023-06-10T00:30:05;7.77;;;2.07;;
80557;SDS011;69901;43.524;-5.636;2023-06-10T00:32:34;5.18;;;1.80;;
80557;SDS011;69901;43.524;-5.636;2023-06-10T00:35:00;6.30;;;2.03;;
80557;SDS011;69901;43.524;-5.636;2023-06-10T00:37:25;5.67;;;2.07;;
80557;SDS011;69901;43.524;-5.636;2023-06-10T00:39:51;5.43;;;1.63;;
80557;SDS011;69901;43.524;-5.636;2023-06-10T00:42:16;5.73;;;2.07;;
80557;SDS011;69901;43.524;-5.636;2023-06-10T00:44:41;6.30;;;1.80;;
80557;SDS011;69901;43.524;-5.636;2023-06-10T00:47:07;7.90;;;2.60;;
80557;SDS011;69901;43.524;-5.636;2023-06-10T00:49:32;6.73;;;2.70;;
80557;SDS011;69901;43.524;-5.636;2023-06-10T00:51:58;6.30;;;2.35;;
80557;SDS011;69901;43.524;-5.636;2023-06-10T00:54:23;5.63;;;1.77;;
80557;SDS011;69901;43.524;-5.636;2023-06-10T00:56:49;6.37;;;1.70;;
80557;SDS011;69901;43.524;-5.636;2023-06-10T00:59:14;7.50;;;2.57;;
80557;SDS011;69901;43.524;-5.636;2023-06-10T01:01:40;6.70;;;2.10;;
80557;SDS011;69901;43.524;-5.636;2023-06-10T01:04:06;6.30;;;2.40;;
80557;SDS011;69901;43.524;-5.636;2023-06-10T01:06:36;6.65;;;2.15;;
80557;SDS011;69901;43.524;-5.636;2023-06-10T01:11:34;8.73;;;2.03;;
80557;SDS011;69901;43.524;-5.636;2023-06-10T01:14:01;6.20;;;2.28;;
80557;SDS011;69901;43.524;-5.636;2023-06-10T01:16:28;6.00;;;2.33;;
80557;SDS011;69901;43.524;-5.636;2023-06-10T01:18:53;7.28;;;2.58;;
80557;SDS011;69901;43.524;-5.636;2023-06-10T01:21:20;6.10;;;2.20;;
80557;SDS011;69901;43.524;-5.636;2023-06-10T01:23:46;5.78;;;1.77;;
80557;SDS011;69901;43.524;-5.636;2023-06-10T01:26:11;6.80;;;2.30;;
80557;SDS011;69901;43.524;-5.636;2023-06-10T01:28:41;6.82;;;2.13;;
80557;SDS011;69901;43.524;-5.636;2023-06-10T01:31:20;7.18;;;2.60;;
80557;SDS011;69901;43.524;-5.636;2023-06-10T01:33:50;7.23;;;2.03;;
80557;SDS011;69901;43.524;-5.636;2023-06-10T01:36:16;7.35;;;2.10;;
80557;SDS011;69901;43.524;-5.636;2023-06-10T01:38:43;8.05;;;2.42;;
80557;SDS011;69901;43.524;-5.636;2023-06-10T01:41:09;6.05;;;1.40;;
80557;SDS011;69901;43.524;-5.636;2023-06-10T01:43:37;5.75;;;2.05;;
80557;SDS011;69901;43.524;-5.636;2023-06-10T01:46:02;6.20;;;1.73;;
80557;SDS011;69901;43.524;-5.636;2023-06-10T01:48:27;6.43;;;1.67;;
80557;SDS011;69901;43.524;-5.636;2023-06-10T01:50:53;8.80;;;2.73;;
80557;SDS011;69901;43.524;-5.636;2023-06-10T01:53:20;6.57;;;1.80;;
80557;SDS011;69901;43.524;-5.636;2023-06-10T01:55:46;5.43;;;1.83;;
80557;SDS011;69901;43.524;-5.636;2023-06-10T01:58:11;6.40;;;2.17;;
80557;SDS011;69901;43.524;-5.636;2023-06-10T02:00:36;7.97;;;2.03;;
80557;SDS011;69901;43.524;-5.636;2023-06-10T02:03:01;6.23;;;1.70;;
80557;SDS011;69901;43.524;-5.636;2023-06-10T02:05:27;8.67;;;2.30;;
80557;SDS011;69901;43.524;-5.636;2023-06-10T02:07:52;7.20;;;1.80;;
80557;SDS011;69901;43.524;-5.636;2023-06-10T02:10:17;5.77;;;1.87;;
80557;SDS011;69901;43.524;-5.636;2023-06-10T02:12:42;6.10;;;1.70;;
80557;SDS011;69901;43.524;-5.636;2023-06-10T02:15:08;6.33;;;2.13;;
80557;SDS011;69901;43.524;-5.636;2023-06-10T02:17:33;6.00;;;1.90;;
80557;SDS011;69901;43.524;-5.636;2023-06-10T02:19:58;6.25;;;1.85;;
80557;SDS011;69901;43.524;-5.636;2023-06-10T02:22:24;7.00;;;2.27;;
80557;SDS011;69901;43.524;-5.636;2023-06-10T02:24:50;5.45;;;1.77;;
80557;SDS011;69901;43.524;-5.636;2023-06-10T02:27:16;5.77;;;2.00;;
80557;SDS011;69901;43.524;-5.636;2023-06-10T02:29:41;5.97;;;1.77;;
80557;SDS011;69901;43.524;-5.636;2023-06-10T02:32:07;6.00;;;2.20;;
80557;SDS011;69901;43.524;-5.636;2023-06-10T02:34:32;6.00;;;2.30;;
80557;SDS011;69901;43.524;-5.636;2023-06-10T02:36:58;6.72;;;2.47;;
80557;SDS011;69901;43.524;-5.636;2023-06-10T02:39:24;7.50;;;2.17;;
80557;SDS011;69901;43.524;-5.636;2023-06-10T02:41:49;7.10;;;2.40;;
80557;SDS011;69901;43.524;-5.636;2023-06-10T02:44:15;6.10;;;2.17;;
80557;SDS011;69901;43.524;-5.636;2023-06-10T02:46:40;7.67;;;2.07;;
80557;SDS011;69901;43.524;-5.636;2023-06-10T02:49:05;5.70;;;1.60;;
80557;SDS011;69901;43.524;-5.636;2023-06-10T02:51:30;6.17;;;1.83;;
80557;SDS011;69901;43.524;-5.636;2023-06-10T02:53:56;6.57;;;1.40;;
80557;SDS011;69901;43.524;-5.636;2023-06-10T02:56:21;6.23;;;1.40;;
80557;SDS011;69901;43.524;-5.636;2023-06-10T02:58:46;4.93;;;1.50;;
80557;SDS011;69901;43.524;-5.636;2023-06-10T03:01:13;5.15;;;1.15;;
80557;SDS011;69901;43.524;-5.636;2023-06-10T03:03:38;4.67;;;1.03;;
80557;SDS011;69901;43.524;-5.636;2023-06-10T03:06:07;4.97;;;1.60;;
80557;SDS011;69901;43.524;-5.636;2023-06-10T03:08:33;5.93;;;1.47;;
80557;SDS011;69901;43.524;-5.636;2023-06-10T03:10:58;6.57;;;1.73;;
80557;SDS011;69901;43.524;-5.636;2023-06-10T03:13:24;5.77;;;1.87;;
80557;SDS011;69901;43.524;-5.636;2023-06-10T03:15:49;6.57;;;1.60;;
80557;SDS011;69901;43.524;-5.636;2023-06-10T03:18:15;7.03;;;1.90;;
80557;SDS011;69901;43.524;-5.636;2023-06-10T03:20:40;6.43;;;2.00;;
80557;SDS011;69901;43.524;-5.636;2023-06-10T03:23:05;7.03;;;2.00;;
80557;SDS011;69901;43.524;-5.636;2023-06-10T03:25:34;6.72;;;1.85;;
80557;SDS011;69901;43.524;-5.636;2023-06-10T03:28:00;6.10;;;1.60;;
80557;SDS011;69901;43.524;-5.636;2023-06-10T03:30:26;7.65;;;1.92;;
80557;SDS011;69901;43.524;-5.636;2023-06-10T03:32:52;8.48;;;1.85;;
80557;SDS011;69901;43.524;-5.636;2023-06-10T03:35:17;6.17;;;2.10;;
80557;SDS011;69901;43.524;-5.636;2023-06-10T03:37:42;10.83;;;2.00;;
80557;SDS011;69901;43.524;-5.636;2023-06-10T03:40:08;6.50;;;1.40;;
80557;SDS011;69901;43.524;-5.636;2023-06-10T03:42:34;6.43;;;1.77;;
80557;SDS011;69901;43.524;-5.636;2023-06-10T03:44:59;5.70;;;1.83;;
80557;SDS011;69901;43.524;-5.636;2023-06-10T03:47:24;9.00;;;2.03;;
80557;SDS011;69901;43.524;-5.636;2023-06-10T03:49:50;6.47;;;1.93;;
80557;SDS011;69901;43.524;-5.636;2023-06-10T03:52:15;5.50;;;1.80;;
80557;SDS011;69901;43.524;-5.636;2023-06-10T03:54:40;6.97;;;1.77;;
80557;SDS011;69901;43.524;-5.636;2023-06-10T03:57:05;7.80;;;1.83;;
80557;SDS011;69901;43.524;-5.636;2023-06-10T03:59:31;6.13;;;1.70;;
80557;SDS011;69901;43.524;-5.636;2023-06-10T04:01:56;5.37;;;1.97;;
80557;SDS011;69901;43.524;-5.636;2023-06-10T04:04:22;6.10;;;1.95;;
80557;SDS011;69901;43.524;-5.636;2023-06-10T04:06:48;5.20;;;1.90;;
80557;SDS011;69901;43.524;-5.636;2023-06-10T04:09:13;5.55;;;1.70;;
80557;SDS011;69901;43.524;-5.636;2023-06-10T04:11:39;5.30;;;1.53;;
80557;SDS011;69901;43.524;-5.636;2023-06-10T04:14:04;7.97;;;2.13;;
80557;SDS011;69901;43.524;-5.636;2023-06-10T04:16:30;7.68;;;2.03;;
80557;SDS011;69901;43.524;-5.636;2023-06-10T04:18:55;6.40;;;1.73;;
80557;SDS011;69901;43.524;-5.636;2023-06-10T04:21:20;4.60;;;1.60;;
80557;SDS011;69901;43.524;-5.636;2023-06-10T04:23:46;6.05;;;1.50;;
80557;SDS011;69901;43.524;-5.636;2023-06-10T04:26:12;6.53;;;1.73;;
80557;SDS011;69901;43.524;-5.636;2023-06-10T04:28:37;5.37;;;1.47;;
80557;SDS011;69901;43.524;-5.636;2023-06-10T04:31:03;8.60;;;1.90;;
80557;SDS011;69901;43.524;-5.636;2023-06-10T04:33:29;10.75;;;2.35;;
80557;SDS011;69901;43.524;-5.636;2023-06-10T04:35:55;6.95;;;1.85;;
80557;SDS011;69901;43.524;-5.636;2023-06-10T04:38:20;7.03;;;1.47;;
80557;SDS011;69901;43.524;-5.636;2023-06-10T04:40:46;8.15;;;1.73;;
80557;SDS011;69901;43.524;-5.636;2023-06-10T04:43:11;5.90;;;1.60;;
80557;SDS011;69901;43.524;-5.636;2023-06-10T04:45:37;8.77;;;1.90;;
80557;SDS011;69901;43.524;-5.636;2023-06-10T04:48:02;5.37;;;1.93;;
80557;SDS011;69901;43.524;-5.636;2023-06-10T04:50:28;5.85;;;1.88;;
80557;SDS011;69901;43.524;-5.636;2023-06-10T04:52:53;6.23;;;1.67;;
80557;SDS011;69901;43.524;-5.636;2023-06-10T04:55:22;7.90;;;2.00;;
80557;SDS011;69901;43.524;-5.636;2023-06-10T04:57:47;7.57;;;1.90;;
80557;SDS011;69901;43.524;-5.636;2023-06-10T05:00:12;6.63;;;2.25;;
80557;SDS011;69901;43.524;-5.636;2023-06-10T05:02:39;6.03;;;1.67;;
80557;SDS011;69901;43.524;-5.636;2023-06-10T05:05:04;8.37;;;1.90;;
80557;SDS011;69901;43.524;-5.636;2023-06-10T05:07:29;8.50;;;1.90;;
80557;SDS011;69901;43.524;-5.636;2023-06-10T05:09:55;7.47;;;1.63;;
80557;SDS011;69901;43.524;-5.636;2023-06-10T05:12:20;5.40;;;1.80;;
80557;SDS011;69901;43.524;-5.636;2023-06-10T05:14:45;6.40;;;2.13;;
80557;SDS011;69901;43.524;-5.636;2023-06-10T05:17:11;8.03;;;1.50;;
80557;SDS011;69901;43.524;-5.636;2023-06-10T05:19:38;7.22;;;1.48;;
80557;SDS011;69901;43.524;-5.636;2023-06-10T05:22:03;6.00;;;1.90;;
80557;SDS011;69901;43.524;-5.636;2023-06-10T05:24:28;7.97;;;1.65;;
80557;SDS011;69901;43.524;-5.636;2023-06-10T05:26:54;5.90;;;1.17;;
80557;SDS011;69901;43.524;-5.636;2023-06-10T05:29:19;7.00;;;1.63;;
80557;SDS011;69901;43.524;-5.636;2023-06-10T05:31:44;6.77;;;1.80;;
80557;SDS011;69901;43.524;-5.636;2023-06-10T05:34:10;5.87;;;1.83;;
80557;SDS011;69901;43.524;-5.636;2023-06-10T05:36:35;7.15;;;1.58;;
80557;SDS011;69901;43.524;-5.636;2023-06-10T05:39:00;6.47;;;1.67;;
80557;SDS011;69901;43.524;-5.636;2023-06-10T05:41:25;6.73;;;2.00;;
80557;SDS011;69901;43.524;-5.636;2023-06-10T05:43:51;6.63;;;2.20;;
80557;SDS011;69901;43.524;-5.636;2023-06-10T05:46:16;6.33;;;2.13;;
80557;SDS011;69901;43.524;-5.636;2023-06-10T05:48:41;6.57;;;2.20;;
80557;SDS011;69901;43.524;-5.636;2023-06-10T05:51:07;5.93;;;2.27;;
80557;SDS011;69901;43.524;-5.636;2023-06-10T05:53:32;6.37;;;2.10;;
80557;SDS011;69901;43.524;-5.636;2023-06-10T05:55:57;6.57;;;2.17;;
80557;SDS011;69901;43.524;-5.636;2023-06-10T05:58:23;6.80;;;2.08;;
80557;SDS011;69901;43.524;-5.636;2023-06-10T06:00:49;6.60;;;2.37;;
80557;SDS011;69901;43.524;-5.636;2023-06-10T06:03:14;6.47;;;2.10;;
80557;SDS011;69901;43.524;-5.636;2023-06-10T06:05:39;5.50;;;1.90;;
80557;SDS011;69901;43.524;-5.636;2023-06-10T06:08:05;9.80;;;2.03;;
80557;SDS011;69901;43.524;-5.636;2023-06-10T06:10:30;9.87;;;2.47;;
80557;SDS011;69901;43.524;-5.636;2023-06-10T06:12:55;5.60;;;1.80;;
80557;SDS011;69901;43.524;-5.636;2023-06-10T06:15:21;6.30;;;1.73;;
80557;SDS011;69901;43.524;-5.636;2023-06-10T06:17:46;6.17;;;2.23;;
80557;SDS011;69901;43.524;-5.636;2023-06-10T06:20:11;7.60;;;2.53;;
80557;SDS011;69901;43.524;-5.636;2023-06-10T06:22:36;6.17;;;2.17;;
80557;SDS011;69901;43.524;-5.636;2023-06-10T06:25:02;5.97;;;1.90;;
80557;SDS011;69901;43.524;-5.636;2023-06-10T06:27:27;6.03;;;2.27;;
80557;SDS011;69901;43.524;-5.636;2023-06-10T06:29:53;9.67;;;2.63;;
80557;SDS011;69901;43.524;-5.636;2023-06-10T06:32:18;10.87;;;2.50;;
80557;SDS011;69901;43.524;-5.636;2023-06-10T06:34:44;7.35;;;2.50;;
80557;SDS011;69901;43.524;-5.636;2023-06-10T06:37:09;5.97;;;2.43;;
80557;SDS011;69901;43.524;-5.636;2023-06-10T06:39:34;6.10;;;2.60;;
80557;SDS011;69901;43.524;-5.636;2023-06-10T06:42:00;6.60;;;2.40;;
80557;SDS011;69901;43.524;-5.636;2023-06-10T06:44:25;7.83;;;2.67;;
80557;SDS011;69901;43.524;-5.636;2023-06-10T06:46:50;5.57;;;2.27;;
80557;SDS011;69901;43.524;-5.636;2023-06-10T06:49:15;6.43;;;2.60;;
80557;SDS011;69901;43.524;-5.636;2023-06-10T06:51:41;6.63;;;2.78;;
80557;SDS011;69901;43.524;-5.636;2023-06-10T06:54:06;6.40;;;2.60;;
80557;SDS011;69901;43.524;-5.636;2023-06-10T06:56:31;9.07;;;2.70;;
80557;SDS011;69901;43.524;-5.636;2023-06-10T06:58:57;8.57;;;2.57;;
80557;SDS011;69901;43.524;-5.636;2023-06-10T07:01:22;6.47;;;2.07;;
80557;SDS011;69901;43.524;-5.636;2023-06-10T07:03:48;7.43;;;2.43;;
80557;SDS011;69901;43.524;-5.636;2023-06-10T07:06:13;7.20;;;2.30;;
80557;SDS011;69901;43.524;-5.636;2023-06-10T07:08:38;8.20;;;1.93;;
80557;SDS011;69901;43.524;-5.636;2023-06-10T07:11:04;5.73;;;2.10;;
80557;SDS011;69901;43.524;-5.636;2023-06-10T07:13:29;5.10;;;1.60;;
80557;SDS011;69901;43.524;-5.636;2023-06-10T07:15:54;6.70;;;2.23;;
80557;SDS011;69901;43.524;-5.636;2023-06-10T07:18:20;5.57;;;1.80;;
80557;SDS011;69901;43.524;-5.636;2023-06-10T07:20:45;8.45;;;2.38;;
80557;SDS011;69901;43.524;-5.636;2023-06-10T07:23:10;6.13;;;1.87;;
80557;SDS011;69901;43.524;-5.636;2023-06-10T07:25:35;6.13;;;1.83;;
80557;SDS011;69901;43.524;-5.636;2023-06-10T07:28:01;6.20;;;1.83;;
80557;SDS011;69901;43.524;-5.636;2023-06-10T07:30:27;7.20;;;1.90;;
80557;SDS011;69901;43.524;-5.636;2023-06-10T07:32:53;5.68;;;1.85;;
80557;SDS011;69901;43.524;-5.636;2023-06-10T07:35:18;6.83;;;2.43;;
80557;SDS011;69901;43.524;-5.636;2023-06-10T07:37:43;8.07;;;1.80;;
80557;SDS011;69901;43.524;-5.636;2023-06-10T07:40:09;6.03;;;2.10;;
80557;SDS011;69901;43.524;-5.636;2023-06-10T07:42:35;5.20;;;1.52;;
80557;SDS011;69901;43.524;-5.636;2023-06-10T07:45:00;6.83;;;1.87;;
80557;SDS011;69901;43.524;-5.636;2023-06-10T07:47:25;5.83;;;1.60;;
80557;SDS011;69901;43.524;-5.636;2023-06-10T07:49:51;4.68;;;1.60;;
80557;SDS011;69901;43.524;-5.636;2023-06-10T07:52:16;4.80;;;1.80;;
80557;SDS011;69901;43.524;-5.636;2023-06-10T07:54:41;4.93;;;1.40;;
80557;SDS011;69901;43.524;-5.636;2023-06-10T07:57:07;4.57;;;1.40;;
80557;SDS011;69901;43.524;-5.636;2023-06-10T07:59:32;5.60;;;1.60;;
80557;SDS011;69901;43.524;-5.636;2023-06-10T08:01:58;4.87;;;1.70;;
80557;SDS011;69901;43.524;-5.636;2023-06-10T08:04:23;5.13;;;1.17;;
80557;SDS011;69901;43.524;-5.636;2023-06-10T08:06:48;6.03;;;1.90;;
80557;SDS011;69901;43.524;-5.636;2023-06-10T08:09:13;4.80;;;1.70;;
80557;SDS011;69901;43.524;-5.636;2023-06-10T08:11:39;6.20;;;1.73;;
80557;SDS011;69901;43.524;-5.636;2023-06-10T08:14:04;7.33;;;2.30;;
80557;SDS011;69901;43.524;-5.636;2023-06-10T08:16:29;5.17;;;1.50;;
80557;SDS011;69901;43.524;-5.636;2023-06-10T08:18:55;6.87;;;2.17;;
80557;SDS011;69901;43.524;-5.636;2023-06-10T08:21:20;6.10;;;1.80;;
80557;SDS011;69901;43.524;-5.636;2023-06-10T08:23:46;5.63;;;1.50;;
80557;SDS011;69901;43.524;-5.636;2023-06-10T08:26:11;7.00;;;1.60;;
80557;SDS011;69901;43.524;-5.636;2023-06-10T08:28:36;4.40;;;1.53;;
80557;SDS011;69901;43.524;-5.636;2023-06-10T08:31:02;6.87;;;2.50;;
80557;SDS011;69901;43.524;-5.636;2023-06-10T08:33:27;5.73;;;1.90;;
80557;SDS011;69901;43.524;-5.636;2023-06-10T08:35:52;5.57;;;1.60;;
80557;SDS011;69901;43.524;-5.636;2023-06-10T08:38:17;4.83;;;1.37;;
80557;SDS011;69901;43.524;-5.636;2023-06-10T08:40:43;5.60;;;1.60;;
80557;SDS011;69901;43.524;-5.636;2023-06-10T08:43:10;6.03;;;1.60;;
80557;SDS011;69901;43.524;-5.636;2023-06-10T08:45:40;5.65;;;1.30;;
80557;SDS011;69901;43.524;-5.636;2023-06-10T08:48:07;4.73;;;1.03;;
80557;SDS011;69901;43.524;-5.636;2023-06-10T08:50:37;4.28;;;1.00;;
80557;SDS011;69901;43.524;-5.636;2023-06-10T08:53:04;4.38;;;1.33;;
80557;SDS011;69901;43.524;-5.636;2023-06-10T08:55:30;6.13;;;1.33;;
80557;SDS011;69901;43.524;-5.636;2023-06-10T08:57:57;4.03;;;1.02;;
80557;SDS011;69901;43.524;-5.636;2023-06-10T09:00:22;3.93;;;1.03;;
80557;SDS011;69901;43.524;-5.636;2023-06-10T09:02:48;4.50;;;1.10;;
80557;SDS011;69901;43.524;-5.636;2023-06-10T09:05:14;5.72;;;1.10;;
80557;SDS011;69901;43.524;-5.636;2023-06-10T09:07:40;3.60;;;0.80;;
80557;SDS011;69901;43.524;-5.636;2023-06-10T09:10:05;4.33;;;1.00;;
80557;SDS011;69901;43.524;-5.636;2023-06-10T09:12:32;4.15;;;0.88;;
80557;SDS011;69901;43.524;-5.636;2023-06-10T09:14:57;4.53;;;1.00;;
80557;SDS011;69901;43.524;-5.636;2023-06-10T09:17:23;4.30;;;1.00;;
80557;SDS011;69901;43.524;-5.636;2023-06-10T09:19:48;4.33;;;0.90;;
80557;SDS011;69901;43.524;-5.636;2023-06-10T09:22:14;5.27;;;1.00;;
80557;SDS011;69901;43.524;-5.636;2023-06-10T09:24:39;4.80;;;1.10;;
80557;SDS011;69901;43.524;-5.636;2023-06-10T09:27:05;5.03;;;1.10;;
80557;SDS011;69901;43.524;-5.636;2023-06-10T09:29:32;4.03;;;0.67;;
80557;SDS011;69901;43.524;-5.636;2023-06-10T09:31:57;4.80;;;0.70;;
80557;SDS011;69901;43.524;-5.636;2023-06-10T09:34:24;3.75;;;0.80;;
80557;SDS011;69901;43.524;-5.636;2023-06-10T09:36:50;5.05;;;1.00;;
80557;SDS011;69901;43.524;-5.636;2023-06-10T09:39:16;4.87;;;0.90;;
80557;SDS011;69901;43.524;-5.636;2023-06-10T09:41:42;5.47;;;0.90;;
80557;SDS011;69901;43.524;-5.636;2023-06-10T09:44:20;4.32;;;1.20;;
80557;SDS011;69901;43.524;-5.636;2023-06-10T09:46:46;5.47;;;1.03;;
80557;SDS011;69901;43.524;-5.636;2023-06-10T09:49:12;5.05;;;1.10;;
80557;SDS011;69901;43.524;-5.636;2023-06-10T09:51:37;4.20;;;1.27;;
80557;SDS011;69901;43.524;-5.636;2023-06-10T09:54:03;5.50;;;1.23;;
80557;SDS011;69901;43.524;-5.636;2023-06-10T09:56:35;5.17;;;0.90;;
80557;SDS011;69901;43.524;-5.636;2023-06-10T09:59:00;4.82;;;1.10;;
80557;SDS011;69901;43.524;-5.636;2023-06-10T10:01:26;5.00;;;1.20;;
80557;SDS011;69901;43.524;-5.636;2023-06-10T10:03:52;5.13;;;1.30;;
80557;SDS011;69901;43.524;-5.636;2023-06-10T10:06:18;6.33;;;1.00;;
80557;SDS011;69901;43.524;-5.636;2023-06-10T10:08:44;4.05;;;1.10;;
80557;SDS011;69901;43.524;-5.636;2023-06-10T10:11:10;4.15;;;1.13;;
80557;SDS011;69901;43.524;-5.636;2023-06-10T10:13:36;5.70;;;1.30;;
80557;SDS011;69901;43.524;-5.636;2023-06-10T10:16:21;5.33;;;1.07;;
80557;SDS011;69901;43.524;-5.636;2023-06-10T10:18:52;4.20;;;1.23;;
80557;SDS011;69901;43.524;-5.636;2023-06-10T10:21:20;5.57;;;1.10;;
80557;SDS011;69901;43.524;-5.636;2023-06-10T10:24:03;4.63;;;1.10;;
80557;SDS011;69901;43.524;-5.636;2023-06-10T10:26:30;5.43;;;1.20;;
80557;SDS011;69901;43.524;-5.636;2023-06-10T10:31:40;4.25;;;1.10;;
80557;SDS011;69901;43.524;-5.636;2023-06-10T10:34:08;5.55;;;1.27;;
80557;SDS011;69901;43.524;-5.636;2023-06-10T10:36:34;5.60;;;1.25;;
80557;SDS011;69901;43.524;-5.636;2023-06-10T10:39:01;4.57;;;1.08;;
80557;SDS011;69901;43.524;-5.636;2023-06-10T10:41:28;5.23;;;1.40;;
80557;SDS011;69901;43.524;-5.636;2023-06-10T10:43:55;4.53;;;1.33;;
80557;SDS011;69901;43.524;-5.636;2023-06-10T10:46:20;5.65;;;1.30;;
80557;SDS011;69901;43.524;-5.636;2023-06-10T10:48:49;5.90;;;1.20;;
80557;SDS011;69901;43.524;-5.636;2023-06-10T10:51:15;4.70;;;1.30;;
80557;SDS011;69901;43.524;-5.636;2023-06-10T10:53:40;4.90;;;1.10;;
80557;SDS011;69901;43.524;-5.636;2023-06-10T10:56:13;4.70;;;1.20;;
80557;SDS011;69901;43.524;-5.636;2023-06-10T10:58:38;4.40;;;1.30;;
80557;SDS011;69901;43.524;-5.636;2023-06-10T11:01:11;5.57;;;1.30;;
80557;SDS011;69901;43.524;-5.636;2023-06-10T11:03:41;3.80;;;1.00;;
80557;SDS011;69901;43.524;-5.636;2023-06-10T11:06:11;4.18;;;1.08;;
80557;SDS011;69901;43.524;-5.636;2023-06-10T11:11:24;4.32;;;0.98;;
80557;SDS011;69901;43.524;-5.636;2023-06-10T11:16:29;4.65;;;0.95;;
80557;SDS011;69901;43.524;-5.636;2023-06-10T11:18:55;3.42;;;1.00;;
80557;SDS011;69901;43.524;-5.636;2023-06-10T11:21:20;4.77;;;1.30;;
80557;SDS011;69901;43.524;-5.636;2023-06-10T11:23:46;4.63;;;1.30;;
80557;SDS011;69901;43.524;-5.636;2023-06-10T11:26:15;4.03;;;1.10;;
80557;SDS011;69901;43.524;-5.636;2023-06-10T11:29:03;4.03;;;1.08;;
80557;SDS011;69901;43.524;-5.636;2023-06-10T11:31:28;4.57;;;1.20;;
80557;SDS011;69901;43.524;-5.636;2023-06-10T11:33:57;3.72;;;1.33;;
80557;SDS011;69901;43.524;-5.636;2023-06-10T11:36:23;4.77;;;1.17;;
80557;SDS011;69901;43.524;-5.636;2023-06-10T11:39:02;3.97;;;1.00;;
80557;SDS011;69901;43.524;-5.636;2023-06-10T11:41:28;4.15;;;1.15;;
80557;SDS011;69901;43.524;-5.636;2023-06-10T11:43:54;4.57;;;1.00;;
80557;SDS011;69901;43.524;-5.636;2023-06-10T11:46:23;4.00;;;1.20;;
80557;SDS011;69901;43.524;-5.636;2023-06-10T11:48:52;6.30;;;1.30;;
80557;SDS011;69901;43.524;-5.636;2023-06-10T11:51:18;4.30;;;1.20;;
80557;SDS011;69901;43.524;-5.636;2023-06-10T11:53:44;5.13;;;1.30;;
80557;SDS011;69901;43.524;-5.636;2023-06-10T11:56:09;4.53;;;1.23;;
80557;SDS011;69901;43.524;-5.636;2023-06-10T11:58:35;5.30;;;1.37;;
80557;SDS011;69901;43.524;-5.636;2023-06-10T12:01:00;4.80;;;1.47;;
80557;SDS011;69901;43.524;-5.636;2023-06-10T12:03:27;5.22;;;1.00;;
80557;SDS011;69901;43.524;-5.636;2023-06-10T12:06:01;5.20;;;1.17;;
80557;SDS011;69901;43.524;-5.636;2023-06-10T12:08:27;3.60;;;1.00;;
80557;SDS011;69901;43.524;-5.636;2023-06-10T12:10:53;4.07;;;1.10;;
80557;SDS011;69901;43.524;-5.636;2023-06-10T12:13:18;4.40;;;1.10;;
80557;SDS011;69901;43.524;-5.636;2023-06-10T12:15:44;4.13;;;0.93;;
80557;SDS011;69901;43.524;-5.636;2023-06-10T12:18:16;6.18;;;1.25;;
80557;SDS011;69901;43.524;-5.636;2023-06-10T12:20:42;4.43;;;1.40;;
80557;SDS011;69901;43.524;-5.636;2023-06-10T12:23:09;4.33;;;1.30;;
80557;SDS011;69901;43.524;-5.636;2023-06-10T12:25:34;5.78;;;1.60;;
80557;SDS011;69901;43.524;-5.636;2023-06-10T12:28:02;4.32;;;1.38;;
80557;SDS011;69901;43.524;-5.636;2023-06-10T12:30:27;4.90;;;1.30;;
80557;SDS011;69901;43.524;-5.636;2023-06-10T12:32:53;5.40;;;1.80;;
80557;SDS011;69901;43.524;-5.636;2023-06-10T12:35:21;5.63;;;1.40;;
80557;SDS011;69901;43.524;-5.636;2023-06-10T12:38:03;6.22;;;1.17;;
80557;SDS011;69901;43.524;-5.636;2023-06-10T12:40:30;4.05;;;1.30;;
80557;SDS011;69901;43.524;-5.636;2023-06-10T12:42:57;5.50;;;1.40;;
80557;SDS011;69901;43.524;-5.636;2023-06-10T12:45:26;5.38;;;1.20;;
80557;SDS011;69901;43.524;-5.636;2023-06-10T12:47:51;4.35;;;1.30;;
80557;SDS011;69901;43.524;-5.636;2023-06-10T12:50:17;6.47;;;1.20;;
80557;SDS011;69901;43.524;-5.636;2023-06-10T12:52:42;4.63;;;1.20;;
80557;SDS011;69901;43.524;-5.636;2023-06-10T12:55:07;4.30;;;1.53;;
80557;SDS011;69901;43.524;-5.636;2023-06-10T12:57:33;5.37;;;1.43;;
80557;SDS011;69901;43.524;-5.636;2023-06-10T12:59:58;4.87;;;1.43;;
80557;SDS011;69901;43.524;-5.636;2023-06-10T13:02:28;3.77;;;1.33;;
80557;SDS011;69901;43.524;-5.636;2023-06-10T13:04:54;3.87;;;1.13;;
80557;SDS011;69901;43.524;-5.636;2023-06-10T13:07:19;4.13;;;1.30;;
80557;SDS011;69901;43.524;-5.636;2023-06-10T13:09:44;5.03;;;1.13;;
80557;SDS011;69901;43.524;-5.636;2023-06-10T13:12:11;4.00;;;1.60;;
80557;SDS011;69901;43.524;-5.636;2023-06-10T13:14:37;4.55;;;1.48;;
80557;SDS011;69901;43.524;-5.636;2023-06-10T13:17:03;4.07;;;1.07;;
80557;SDS011;69901;43.524;-5.636;2023-06-10T13:19:30;4.07;;;1.15;;
80557;SDS011;69901;43.524;-5.636;2023-06-10T13:21:56;3.27;;;1.10;;
80557;SDS011;69901;43.524;-5.636;2023-06-10T13:24:21;4.13;;;1.20;;
80557;SDS011;69901;43.524;-5.636;2023-06-10T13:26:46;4.03;;;1.00;;
80557;SDS011;69901;43.524;-5.636;2023-06-10T13:29:11;4.30;;;1.50;;
80557;SDS011;69901;43.524;-5.636;2023-06-10T13:31:39;4.33;;;1.63;;
80557;SDS011;69901;43.524;-5.636;2023-06-10T13:34:04;3.92;;;1.63;;
80557;SDS011;69901;43.524;-5.636;2023-06-10T13:36:30;4.50;;;1.37;;
80557;SDS011;69901;43.524;-5.636;2023-06-10T13:38:55;6.47;;;1.37;;
80557;SDS011;69901;43.524;-5.636;2023-06-10T13:41:20;5.27;;;1.30;;
80557;SDS011;69901;43.524;-5.636;2023-06-10T13:43:46;3.60;;;1.43;;
80557;SDS011;69901;43.524;-5.636;2023-06-10T13:46:11;4.85;;;1.10;;
80557;SDS011;69901;43.524;-5.636;2023-06-10T13:48:36;5.20;;;1.50;;
80557;SDS011;69901;43.524;-5.636;2023-06-10T13:51:02;4.57;;;1.30;;
80557;SDS011;69901;43.524;-5.636;2023-06-10T13:53:27;4.43;;;1.37;;
80557;SDS011;69901;43.524;-5.636;2023-06-10T13:55:52;4.43;;;1.30;;
80557;SDS011;69901;43.524;-5.636;2023-06-10T13:58:17;4.63;;;1.20;;
80557;SDS011;69901;43.524;-5.636;2023-06-10T14:00:43;5.30;;;1.67;;
80557;SDS011;69901;43.524;-5.636;2023-06-10T14:03:08;5.10;;;1.60;;
80557;SDS011;69901;43.524;-5.636;2023-06-10T14:05:33;4.30;;;1.50;;
80557;SDS011;69901;43.524;-5.636;2023-06-10T14:07:59;4.80;;;1.40;;
80557;SDS011;69901;43.524;-5.636;2023-06-10T14:10:25;4.33;;;1.43;;
80557;SDS011;69901;43.524;-5.636;2023-06-10T14:12:50;4.93;;;1.60;;
80557;SDS011;69901;43.524;-5.636;2023-06-10T14:15:16;3.50;;;1.10;;
80557;SDS011;69901;43.524;-5.636;2023-06-10T14:17:41;4.43;;;1.57;;
80557;SDS011;69901;43.524;-5.636;2023-06-10T14:20:07;4.20;;;1.13;;
80557;SDS011;69901;43.524;-5.636;2023-06-10T14:22:32;4.78;;;1.40;;
80557;SDS011;69901;43.524;-5.636;2023-06-10T14:24:58;4.20;;;1.33;;
80557;SDS011;69901;43.524;-5.636;2023-06-10T14:27:23;4.90;;;1.40;;
80557;SDS011;69901;43.524;-5.636;2023-06-10T14:29:48;4.13;;;1.13;;
80557;SDS011;69901;43.524;-5.636;2023-06-10T14:32:13;3.97;;;1.27;;
80557;SDS011;69901;43.524;-5.636;2023-06-10T14:34:39;4.97;;;0.90;;
80557;SDS011;69901;43.524;-5.636;2023-06-10T14:37:04;3.60;;;1.47;;